Time;durP1;ratioP1;P1;durP2;ratioP2;P2;SDS_P1;SDS_P2;PMS_P1;PMS_P2;Temp;Humidity;BMP_temperature;BMP_pressure;BME280_temperature;BME280_humidity;BME280_pressure;Samples;Min_cycle;Max_cycle;Signal;HPM_P1;HPM_P2
2023/01/06 00:00:34;;;;;;;;;;;13.40;99.90;;;;;;7356042;19;108164;-95
2023/01/06 00:03:01;;;;;;;;;;;13.40;99.90;;;;;;7364014;19;108333;-96
2023/01/06 00:05:28;;;;;;;;;;;13.40;99.90;;;;;;7361906;19;109461;-95
2023/01/06 00:07:58;;;;;;;;;;;13.50;99.90;;;;;;7357962;19;108546;-95
2023/01/06 00:10:25;;;;;;;;;;;13.50;99.90;;;;;;7364233;19;108395;-95
2023/01/06 00:12:52;;;;;;;;;;;13.40;99.90;;;;;;7364428;19;109060;-96
2023/01/06 00:15:35;;;;;;;;;;;13.40;99.90;;;;;;7366861;19;108360;-96
2023/01/06 00:18:03;;;;;;;;;;;13.40;99.90;;;;;;7369250;19;108552;-96
2023/01/06 00:20:30;;;;;;;;;;;13.30;99.90;;;;;;7366804;19;108011;-95
2023/01/06 00:22:57;;;;;;;;;;;13.30;99.90;;;;;;7368135;19;107342;-96
2023/01/06 00:25:27;;;;;;;;;;;13.30;99.90;;;;;;7367857;19;108654;-96
2023/01/06 00:27:54;;;;;;;;;;;13.30;99.90;;;;;;7372371;19;107478;-96
2023/01/06 00:30:22;;;;;;;;;;;13.30;99.90;;;;;;7375275;19;110044;-95
2023/01/06 00:32:49;;;;;;;;;;;13.30;99.90;;;;;;7375277;19;109749;-96
2023/01/06 00:35:18;;;;;;;;;;;13.30;99.90;;;;;;7383006;19;107380;-96
2023/01/06 00:37:45;;;;;;;;;;;13.30;99.90;;;;;;7370567;19;109989;-95
2023/01/06 00:40:12;;;;;;;;;;;13.20;99.90;;;;;;7375735;19;107357;-96
2023/01/06 00:42:42;;;;;;;;;;;13.20;99.90;;;;;;7377157;19;108374;-95
2023/01/06 00:45:11;;;;;;;;;;;13.20;99.90;;;;;;7372667;19;109259;-96
2023/01/06 00:47:38;;;;;;;;;;;13.20;99.90;;;;;;7375361;19;108945;-96
2023/01/06 00:50:06;;;;;;;;;;;13.20;99.90;;;;;;7369755;19;108884;-95
2023/01/06 00:52:33;;;;;;;;;;;13.20;99.90;;;;;;7369836;19;109076;-96
2023/01/06 00:55:00;;;;;;;;;;;13.10;99.90;;;;;;7375481;19;107384;-96
2023/01/06 00:57:27;;;;;;;;;;;13.20;99.90;;;;;;7367657;19;108519;-96
2023/01/06 00:59:56;;;;;;;;;;;13.20;99.90;;;;;;7370384;19;107371;-96
2023/01/06 01:02:23;;;;;;;;;;;13.20;99.90;;;;;;7376910;19;109679;-96
2023/01/06 01:04:51;;;;;;;;;;;13.20;99.90;;;;;;7371161;19;109560;-95
2023/01/06 01:07:18;;;;;;;;;;;13.20;99.90;;;;;;7364722;19;107462;-95
2023/01/06 01:09:45;;;;;;;;;;;13.20;99.90;;;;;;7362443;19;108168;-94
2023/01/06 01:12:12;;;;;;;;;;;13.20;99.90;;;;;;7362093;19;110222;-96
2023/01/06 01:14:41;;;;;;;;;;;13.20;99.90;;;;;;7361821;19;107586;-95
2023/01/06 01:17:10;;;;;;;;;;;13.20;99.90;;;;;;7366690;19;108159;-96
2023/01/06 01:19:37;;;;;;;;;;;13.20;99.90;;;;;;7362929;19;107502;-96
2023/01/06 01:22:05;;;;;;;;;;;13.20;99.90;;;;;;7356584;19;108453;-96
2023/01/06 01:24:32;;;;;;;;;;;13.20;99.90;;;;;;7360423;19;108509;-96
2023/01/06 01:26:59;;;;;;;;;;;13.20;99.90;;;;;;7360885;19;107694;-95
2023/01/06 01:29:26;;;;;;;;;;;13.20;99.90;;;;;;7358910;19;108420;-96
2023/01/06 01:31:56;;;;;;;;;;;13.10;99.90;;;;;;7368457;19;109394;-95
2023/01/06 01:34:23;;;;;;;;;;;13.10;99.90;;;;;;7362170;19;107399;-95
2023/01/06 01:36:51;;;;;;;;;;;13.10;99.90;;;;;;7358963;19;107303;-96
2023/01/06 01:39:20;;;;;;;;;;;13.10;99.90;;;;;;7363118;19;108202;-96
2023/01/06 01:41:47;;;;;;;;;;;13.10;99.90;;;;;;7356666;19;108121;-95
2023/01/06 01:44:33;;;;;;;;;;;13.10;99.90;;;;;;7357722;19;109622;-96
2023/01/06 01:47:00;;;;;;;;;;;13.10;99.90;;;;;;7354132;19;108101;-96
2023/01/06 01:49:31;;;;;;;;;;;13.10;99.90;;;;;;7349626;19;108063;-96
2023/01/06 01:51:58;;;;;;;;;;;13.10;99.90;;;;;;7370203;19;109398;-96
2023/01/06 01:54:26;;;;;;;;;;;13.10;99.90;;;;;;7361576;19;107445;-96
2023/01/06 01:57:00;;;;;;;;;;;13.10;99.90;;;;;;7369354;19;107835;-96
2023/01/06 01:59:30;;;;;;;;;;;13.10;99.90;;;;;;7363094;19;109181;-96
2023/01/06 02:01:57;;;;;;;;;;;13.10;99.90;;;;;;7366308;19;107397;-96
2023/01/06 02:04:27;;;;;;;;;;;13.10;99.90;;;;;;7368363;19;111959;-95
2023/01/06 02:06:54;;;;;;;;;;;13.10;99.90;;;;;;7370947;19;107685;-96
2023/01/06 02:09:54;;;;;;;;;;;13.10;99.90;;;;;;7368972;19;109803;-96
2023/01/06 02:12:23;;;;;;;;;;;13.00;99.90;;;;;;7366270;19;109583;-96
2023/01/06 02:14:50;;;;;;;;;;;13.00;99.90;;;;;;7361398;19;107460;-96
2023/01/06 02:17:46;;;;;;;;;;;13.00;99.90;;;;;;7367938;19;107313;-96
2023/01/06 02:20:22;;;;;;;;;;;13.00;99.90;;;;;;7361939;19;111686;-95
2023/01/06 02:23:11;;;;;;;;;;;13.00;99.90;;;;;;7357942;19;108577;-96
2023/01/06 02:25:51;;;;;;;;;;;13.00;99.90;;;;;;7375848;19;107877;-96
2023/01/06 02:28:27;;;;;;;;;;;13.00;99.90;;;;;;7368012;19;107382;-96
2023/01/06 02:31:13;;;;;;;;;;;13.00;99.90;;;;;;7373737;19;108090;-96
2023/01/06 02:33:45;;;;;;;;;;;12.90;99.90;;;;;;7366239;19;108483;-96
2023/01/06 02:36:12;;;;;;;;;;;13.00;99.90;;;;;;7371856;19;107366;-95
2023/01/06 02:38:42;;;;;;;;;;;13.00;99.90;;;;;;7371633;19;107768;-96
2023/01/06 02:41:09;;;;;;;;;;;12.90;99.90;;;;;;7367465;19;109584;-95
2023/01/06 02:43:36;;;;;;;;;;;12.90;99.90;;;;;;7365215;19;107820;-96
2023/01/06 02:46:20;;;;;;;;;;;13.00;99.90;;;;;;7364815;19;108391;-95
2023/01/06 02:48:59;;;;;;;;;;;12.90;99.90;;;;;;7371401;19;109445;-96
2023/01/06 02:51:31;;;;;;;;;;;12.90;99.90;;;;;;7370796;19;108367;-96
2023/01/06 02:54:07;;;;;;;;;;;12.90;99.90;;;;;;7367643;19;108427;-95
2023/01/06 02:56:38;;;;;;;;;;;13.00;99.90;;;;;;7369738;19;107384;-96
2023/01/06 02:59:13;;;;;;;;;;;12.90;99.90;;;;;;7372766;19;107639;-96
2023/01/06 03:01:43;;;;;;;;;;;12.90;99.90;;;;;;7366086;19;109484;-95
2023/01/06 03:04:14;;;;;;;;;;;12.90;99.90;;;;;;7374500;19;107440;-96
2023/01/06 03:06:48;;;;;;;;;;;12.90;99.90;;;;;;7377851;19;110100;-96
2023/01/06 03:09:21;;;;;;;;;;;12.90;99.90;;;;;;7382596;19;112412;-95
2023/01/06 03:11:50;;;;;;;;;;;12.90;99.90;;;;;;7378493;19;108548;-96
2023/01/06 03:14:25;;;;;;;;;;;12.90;99.90;;;;;;7365098;19;109387;-96
2023/01/06 03:16:52;;;;;;;;;;;13.00;99.90;;;;;;7360972;19;107703;-96
2023/01/06 03:19:20;;;;;;;;;;;12.90;99.90;;;;;;7366421;19;107474;-95
2023/01/06 03:21:48;;;;;;;;;;;13.00;99.90;;;;;;7360327;19;109588;-95
2023/01/06 03:24:15;;;;;;;;;;;13.00;99.90;;;;;;7373527;19;107332;-96
2023/01/06 03:26:53;;;;;;;;;;;13.00;99.90;;;;;;7372337;19;107417;-96
2023/01/06 03:29:22;;;;;;;;;;;12.90;99.90;;;;;;7368091;19;109386;-96
2023/01/06 03:32:01;;;;;;;;;;;13.00;99.90;;;;;;7373769;19;107506;-96
2023/01/06 03:34:32;;;;;;;;;;;13.00;99.90;;;;;;7372054;19;109747;-95
2023/01/06 03:37:17;;;;;;;;;;;12.90;99.90;;;;;;7372169;19;107493;-95
2023/01/06 03:39:49;;;;;;;;;;;12.90;99.90;;;;;;7368725;19;108101;-96
2023/01/06 03:45:32;;;;;;;;;;;12.90;99.90;;;;;;7371953;19;107308;-96
2023/01/06 03:48:05;;;;;;;;;;;12.90;99.90;;;;;;7368143;19;108417;-96
2023/01/06 03:50:39;;;;;;;;;;;12.90;99.90;;;;;;7366990;19;109631;-96
2023/01/06 03:53:24;;;;;;;;;;;13.00;99.90;;;;;;7376567;19;107324;-96
2023/01/06 03:56:04;;;;;;;;;;;12.90;99.90;;;;;;7371696;19;109229;-94
2023/01/06 03:58:32;;;;;;;;;;;12.90;99.90;;;;;;7373467;19;108051;-95
2023/01/06 04:00:59;;;;;;;;;;;13.00;99.90;;;;;;7370324;19;108408;-95
2023/01/06 04:03:27;;;;;;;;;;;12.90;99.90;;;;;;7374500;19;112201;-93
2023/01/06 04:05:54;;;;;;;;;;;12.90;99.90;;;;;;7376804;19;107377;-95
2023/01/06 04:08:21;;;;;;;;;;;12.90;99.90;;;;;;7376336;19;109009;-96
2023/01/06 04:10:51;;;;;;;;;;;12.80;99.90;;;;;;7373216;19;108297;-96
2023/01/06 04:13:20;;;;;;;;;;;12.80;99.90;;;;;;7368641;19;107989;-96
2023/01/06 04:15:47;;;;;;;;;;;12.80;99.90;;;;;;7371665;19;108851;-96
2023/01/06 04:18:14;;;;;;;;;;;12.80;99.90;;;;;;7373421;19;109256;-95
2023/01/06 04:20:44;;;;;;;;;;;12.80;99.90;;;;;;7363984;19;108002;-96
2023/01/06 04:23:16;;;;;;;;;;;12.80;99.90;;;;;;7373613;19;109386;-96
2023/01/06 04:25:43;;;;;;;;;;;12.80;99.90;;;;;;7359157;19;108467;-94
2023/01/06 04:28:10;;;;;;;;;;;12.80;99.90;;;;;;7347133;19;107972;-95
2023/01/06 04:30:37;;;;;;;;;;;12.80;99.90;;;;;;7344328;19;109709;-96
2023/01/06 04:33:04;;;;;;;;;;;12.80;99.90;;;;;;7345757;19;108757;-94
2023/01/06 04:35:31;;;;;;;;;;;12.80;99.90;;;;;;7346008;19;109000;-96
2023/01/06 04:38:00;;;;;;;;;;;12.80;99.90;;;;;;7346425;19;111592;-95
2023/01/06 04:40:27;;;;;;;;;;;12.80;99.90;;;;;;7351249;19;108583;-93
2023/01/06 04:43:03;;;;;;;;;;;12.80;99.90;;;;;;7346025;19;108680;-96
2023/01/06 04:45:31;;;;;;;;;;;12.80;99.90;;;;;;7346625;19;107948;-95
2023/01/06 04:47:58;;;;;;;;;;;12.70;99.90;;;;;;7345851;19;111925;-93
2023/01/06 04:50:25;;;;;;;;;;;12.70;99.90;;;;;;7345073;19;108676;-93
2023/01/06 04:52:52;;;;;;;;;;;12.70;99.90;;;;;;7347540;19;108103;-95
2023/01/06 04:55:19;;;;;;;;;;;12.70;99.90;;;;;;7344095;19;109757;-96
2023/01/06 04:57:46;;;;;;;;;;;12.80;99.90;;;;;;7347238;19;111427;-93
2023/01/06 05:00:13;;;;;;;;;;;12.70;99.90;;;;;;7346530;19;108062;-94
2023/01/06 05:02:41;;;;;;;;;;;12.70;99.90;;;;;;7350376;19;110837;-95
2023/01/06 05:05:08;;;;;;;;;;;12.70;99.90;;;;;;7346150;19;108564;-95
2023/01/06 05:07:35;;;;;;;;;;;12.80;99.90;;;;;;7347259;19;110444;-94
2023/01/06 05:10:03;;;;;;;;;;;12.70;99.90;;;;;;7345251;19;110700;-94
2023/01/06 05:12:31;;;;;;;;;;;12.80;99.90;;;;;;7347562;19;109941;-95
2023/01/06 05:14:58;;;;;;;;;;;12.70;99.90;;;;;;7353157;19;110534;-94
2023/01/06 05:17:25;;;;;;;;;;;12.70;99.90;;;;;;7353019;19;110272;-95
2023/01/06 05:19:52;;;;;;;;;;;12.70;99.90;;;;;;7354005;19;108502;-94
2023/01/06 05:22:19;;;;;;;;;;;12.70;99.90;;;;;;7357765;19;109228;-94
2023/01/06 05:24:47;;;;;;;;;;;12.70;99.90;;;;;;7354735;19;108270;-94
2023/01/06 05:27:15;;;;;;;;;;;12.70;99.90;;;;;;7351925;19;109831;-95
2023/01/06 05:29:41;;;;;;;;;;;12.80;99.90;;;;;;7350433;19;112087;-93
2023/01/06 05:32:09;;;;;;;;;;;12.70;99.90;;;;;;7351823;19;107980;-94
2023/01/06 05:34:36;;;;;;;;;;;12.70;99.90;;;;;;7352905;19;110203;-95
2023/01/06 05:37:05;;;;;;;;;;;12.70;99.90;;;;;;7353816;19;109050;-96
2023/01/06 05:39:34;;;;;;;;;;;12.70;99.90;;;;;;7352975;19;109442;-95
2023/01/06 05:42:01;;;;;;;;;;;12.80;99.90;;;;;;7352431;19;108997;-95
2023/01/06 05:44:31;;;;;;;;;;;12.70;99.90;;;;;;7358006;19;109178;-96
2023/01/06 05:46:58;;;;;;;;;;;12.80;99.90;;;;;;7353912;19;110061;-94
2023/01/06 05:49:25;;;;;;;;;;;12.70;99.90;;;;;;7351676;19;110724;-95
2023/01/06 05:51:56;;;;;;;;;;;12.70;99.90;;;;;;7355844;19;107367;-95
2023/01/06 05:54:26;;;;;;;;;;;12.70;99.90;;;;;;7356185;19;110057;-95
2023/01/06 05:56:53;;;;;;;;;;;12.70;99.90;;;;;;7354702;19;110948;-94
2023/01/06 05:59:20;;;;;;;;;;;12.70;99.90;;;;;;7353073;19;107960;-96
2023/01/06 06:01:48;;;;;;;;;;;12.70;99.90;;;;;;7354331;19;107927;-94
2023/01/06 06:04:16;;;;;;;;;;;12.70;99.90;;;;;;7350018;19;110797;-95
2023/01/06 06:06:43;;;;;;;;;;;12.70;99.90;;;;;;7359276;19;107556;-96
2023/01/06 06:09:10;;;;;;;;;;;12.70;99.90;;;;;;7352921;19;108555;-94
2023/01/06 06:11:37;;;;;;;;;;;12.70;99.90;;;;;;7353118;19;108015;-94
2023/01/06 06:14:07;;;;;;;;;;;12.70;99.90;;;;;;7352282;19;108290;-95
2023/01/06 06:16:37;;;;;;;;;;;12.70;99.90;;;;;;7352277;19;111840;-96
2023/01/06 06:19:05;;;;;;;;;;;12.70;99.90;;;;;;7353787;19;107962;-95
2023/01/06 06:21:32;;;;;;;;;;;12.70;99.90;;;;;;7353444;19;108458;-95
2023/01/06 06:24:02;;;;;;;;;;;12.70;99.90;;;;;;7355296;19;108373;-96
2023/01/06 06:26:30;;;;;;;;;;;12.70;99.90;;;;;;7349778;19;108338;-95
2023/01/06 06:28:57;;;;;;;;;;;12.60;99.90;;;;;;7359324;19;108800;-95
2023/01/06 06:31:25;;;;;;;;;;;12.70;99.90;;;;;;7351126;19;110217;-95
2023/01/06 06:33:54;;;;;;;;;;;12.70;99.90;;;;;;7353189;19;109257;-96
2023/01/06 06:36:22;;;;;;;;;;;12.70;99.90;;;;;;7352008;19;110396;-96
2023/01/06 06:38:53;;;;;;;;;;;12.70;99.90;;;;;;7355857;19;108010;-96
2023/01/06 06:41:21;;;;;;;;;;;12.80;99.90;;;;;;7353143;19;107752;-95
2023/01/06 06:43:49;;;;;;;;;;;12.80;99.90;;;;;;7352822;19;111856;-96
2023/01/06 06:46:19;;;;;;;;;;;12.80;99.90;;;;;;7353319;19;107968;-95
2023/01/06 06:48:46;;;;;;;;;;;12.80;99.90;;;;;;7352409;19;107236;-96
2023/01/06 06:51:15;;;;;;;;;;;12.80;99.90;;;;;;7357252;19;111392;-95
2023/01/06 06:53:45;;;;;;;;;;;12.80;99.90;;;;;;7351238;19;111640;-96
2023/01/06 06:56:14;;;;;;;;;;;12.80;99.90;;;;;;7349742;19;110706;-95
2023/01/06 06:58:41;;;;;;;;;;;12.80;99.90;;;;;;7352750;19;107633;-96
2023/01/06 07:01:11;;;;;;;;;;;12.80;99.90;;;;;;7354120;19;110142;-96
2023/01/06 07:03:38;;;;;;;;;;;12.90;99.90;;;;;;7351078;19;109263;-95
2023/01/06 07:06:07;;;;;;;;;;;12.80;99.90;;;;;;7352863;19;107559;-94
2023/01/06 07:08:36;;;;;;;;;;;12.90;99.90;;;;;;7351783;19;108065;-96
2023/01/06 07:11:10;;;;;;;;;;;12.90;99.90;;;;;;7351935;19;108701;-96
2023/01/06 07:13:37;;;;;;;;;;;12.90;99.90;;;;;;7358324;19;107805;-96
2023/01/06 07:16:05;;;;;;;;;;;12.90;99.90;;;;;;7353786;19;108253;-95
2023/01/06 07:18:35;;;;;;;;;;;12.90;99.90;;;;;;7351907;19;107272;-96
2023/01/06 07:21:06;;;;;;;;;;;12.90;99.90;;;;;;7354522;19;110209;-95
2023/01/06 07:23:34;;;;;;;;;;;13.00;99.90;;;;;;7356006;19;108198;-96
2023/01/06 07:26:02;;;;;;;;;;;12.90;99.90;;;;;;7354007;19;107517;-95
2023/01/06 07:28:30;;;;;;;;;;;12.90;99.90;;;;;;7353928;19;109247;-95
2023/01/06 07:30:57;;;;;;;;;;;12.90;99.90;;;;;;7354139;19;108202;-96
2023/01/06 07:33:25;;;;;;;;;;;13.00;99.90;;;;;;7360690;19;107598;-95
2023/01/06 07:35:53;;;;;;;;;;;13.00;99.90;;;;;;7357231;19;110547;-95
2023/01/06 07:38:22;;;;;;;;;;;12.90;99.90;;;;;;7358843;19;107653;-96
2023/01/06 07:40:50;;;;;;;;;;;12.90;99.90;;;;;;7362231;19;107286;-94
2023/01/06 07:43:21;;;;;;;;;;;12.90;99.90;;;;;;7350938;19;112584;-90
2023/01/06 07:45:48;;;;;;;;;;;12.90;99.90;;;;;;7345136;19;108131;-89
2023/01/06 07:48:15;;;;;;;;;;;12.90;99.90;;;;;;7345693;19;108890;-91
2023/01/06 07:50:42;;;;;;;;;;;12.90;99.90;;;;;;7342450;19;113150;-91
2023/01/06 07:53:10;;;;;;;;;;;12.90;99.90;;;;;;7343821;19;109309;-92
2023/01/06 07:55:37;;;;;;;;;;;12.90;99.90;;;;;;7349499;19;109469;-94
2023/01/06 07:58:05;;;;;;;;;;;12.90;99.90;;;;;;7343958;19;108208;-91
2023/01/06 08:00:32;;;;;;;;;;;12.80;99.90;;;;;;7343453;19;110462;-93
2023/01/06 08:03:01;;;;;;;;;;;12.80;99.90;;;;;;7340987;19;111183;-90
2023/01/06 08:05:28;;;;;;;;;;;12.80;99.90;;;;;;7343381;19;108741;-91
2023/01/06 08:07:56;;;;;;;;;;;12.80;99.90;;;;;;7343278;19;110537;-90
2023/01/06 08:10:23;;;;;;;;;;;12.90;99.90;;;;;;7338405;19;110605;-90
2023/01/06 08:12:50;;;;;;;;;;;12.80;99.90;;;;;;7340889;19;108298;-89
2023/01/06 08:15:17;;;;;;;;;;;12.80;99.90;;;;;;7340942;19;109640;-91
2023/01/06 08:17:44;;;;;;;;;;;12.80;99.90;;;;;;7346798;19;109192;-89
2023/01/06 08:20:11;;;;;;;;;;;12.80;99.90;;;;;;7342079;19;111686;-91
2023/01/06 08:22:37;;;;;;;;;;;12.80;99.90;;;;;;7340579;19;112867;-91
2023/01/06 08:25:04;;;;;;;;;;;12.80;99.90;;;;;;7342739;19;108281;-89
2023/01/06 08:27:31;;;;;;;;;;;12.80;99.90;;;;;;7342026;19;109243;-90
2023/01/06 08:29:58;;;;;;;;;;;12.80;99.90;;;;;;7341210;19;110372;-92
2023/01/06 08:32:25;;;;;;;;;;;12.80;99.90;;;;;;7339422;19;109821;-90
2023/01/06 08:34:52;;;;;;;;;;;12.80;99.90;;;;;;7341596;19;108758;-89
2023/01/06 08:37:19;;;;;;;;;;;12.80;99.90;;;;;;7340432;19;113480;-89
2023/01/06 08:39:46;;;;;;;;;;;12.80;99.90;;;;;;7348913;19;108363;-90
2023/01/06 08:42:13;;;;;;;;;;;12.70;99.90;;;;;;7340990;19;110647;-91
2023/01/06 08:44:40;;;;;;;;;;;12.70;99.90;;;;;;7343668;19;108411;-89
2023/01/06 08:47:07;;;;;;;;;;;12.70;99.90;;;;;;7346747;19;109317;-91
2023/01/06 08:49:34;;;;;;;;;;;12.70;99.90;;;;;;7350130;19;112866;-91
2023/01/06 08:52:01;;;;;;;;;;;12.70;99.90;;;;;;7344705;19;108357;-90
2023/01/06 08:54:28;;;;;;;;;;;12.70;99.90;;;;;;7345948;19;109741;-90
2023/01/06 08:56:56;;;;;;;;;;;12.70;99.90;;;;;;7346583;19;109184;-90
2023/01/06 08:59:23;;;;;;;;;;;12.70;99.90;;;;;;7346355;19;108831;-89
2023/01/06 09:01:50;;;;;;;;;;;12.70;99.90;;;;;;7352052;19;109607;-91
2023/01/06 09:04:17;;;;;;;;;;;12.70;99.90;;;;;;7346307;19;108601;-91
2023/01/06 09:06:46;;;;;;;;;;;12.80;99.90;;;;;;7350097;19;111503;-91
2023/01/06 09:09:13;;;;;;;;;;;12.80;99.90;;;;;;7348552;19;112337;-91
2023/01/06 09:11:41;;;;;;;;;;;12.80;99.90;;;;;;7346294;19;108895;-90
2023/01/06 09:14:09;;;;;;;;;;;12.80;99.90;;;;;;7346139;19;109080;-91
2023/01/06 09:16:35;;;;;;;;;;;12.80;99.90;;;;;;7347745;19;111699;-91
2023/01/06 09:19:02;;;;;;;;;;;12.80;99.90;;;;;;7347916;19;108330;-89
2023/01/06 09:21:29;;;;;;;;;;;12.80;99.90;;;;;;7350651;19;110892;-90
2023/01/06 09:23:56;;;;;;;;;;;12.80;99.90;;;;;;7350809;19;108516;-90
2023/01/06 09:26:23;;;;;;;;;;;12.80;99.90;;;;;;7348520;19;108890;-91
2023/01/06 09:28:50;;;;;;;;;;;12.80;99.90;;;;;;7346519;19;110322;-88
2023/01/06 09:31:17;;;;;;;;;;;12.80;99.90;;;;;;7348169;19;108535;-90
2023/01/06 09:33:44;;;;;;;;;;;12.90;99.90;;;;;;7347868;19;108262;-90
2023/01/06 09:36:11;;;;;;;;;;;12.90;99.90;;;;;;7344662;19;110208;-90
2023/01/06 09:38:38;;;;;;;;;;;12.80;99.90;;;;;;7344572;19;108573;-90
2023/01/06 09:41:08;;;;;;;;;;;12.80;99.90;;;;;;7347293;19;109120;-89
2023/01/06 09:44:01;;;;;;;;;;;12.90;99.90;;;;;;7348515;19;113310;-91
2023/01/06 09:46:30;;;;;;;;;;;12.80;99.90;;;;;;7343053;19;109228;-89
2023/01/06 09:49:02;;;;;;;;;;;12.90;99.90;;;;;;7344993;19;113028;-89
2023/01/06 09:51:31;;;;;;;;;;;13.00;99.90;;;;;;7343619;19;108342;-89
2023/01/06 09:54:19;;;;;;;;;;;13.00;99.90;;;;;;7345404;19;108737;-90
2023/01/06 09:56:52;;;;;;;;;;;13.10;99.90;;;;;;7346774;19;110720;-91
2023/01/06 09:59:32;;;;;;;;;;;13.20;99.90;;;;;;7344788;19;108690;-90
2023/01/06 10:01:59;;;;;;;;;;;13.20;99.90;;;;;;7343543;19;111490;-85
2023/01/06 10:04:27;;;;;;;;;;;13.20;99.90;;;;;;7340759;19;109118;-86
2023/01/06 10:07:13;;;;;;;;;;;13.30;99.90;;;;;;7346484;19;114054;-90
2023/01/06 10:09:40;;;;;;;;;;;13.30;99.90;;;;;;7340444;19;110927;-87
2023/01/06 10:12:10;;;;;;;;;;;13.30;99.90;;;;;;7340823;19;108810;-87
2023/01/06 10:14:38;;;;;;;;;;;13.30;99.90;;;;;;7339197;19;112137;-88
2023/01/06 10:17:24;;;;;;;;;;;13.40;99.90;;;;;;7338680;19;110698;-86
2023/01/06 10:19:58;;;;;;;;;;;13.50;99.90;;;;;;7341036;19;108656;-86
2023/01/06 10:22:31;;;;;;;;;;;13.40;99.90;;;;;;7337613;19;109885;-86
2023/01/06 10:25:16;;;;;;;;;;;13.50;99.90;;;;;;7346798;19;109516;-89
2023/01/06 10:27:46;;;;;;;;;;;13.40;99.90;;;;;;7343945;19;108829;-89
2023/01/06 10:30:33;;;;;;;;;;;13.40;99.90;;;;;;7350656;19;109571;-89
2023/01/06 10:33:06;;;;;;;;;;;13.40;99.90;;;;;;7343005;19;108745;-90
2023/01/06 10:35:34;;;;;;;;;;;13.40;99.90;;;;;;7343110;19;109832;-91
2023/01/06 10:38:03;;;;;;;;;;;13.40;99.90;;;;;;7347174;19;113722;-93
2023/01/06 10:40:32;;;;;;;;;;;13.40;99.90;;;;;;7347903;19;108414;-90
2023/01/06 10:43:02;;;;;;;;;;;13.40;99.90;;;;;;7344459;19;109076;-91
2023/01/06 10:45:37;;;;;;;;;;;13.40;99.90;;;;;;7345174;19;110137;-90
2023/01/06 10:48:05;;;;;;;;;;;13.40;99.90;;;;;;7346264;19;108869;-92
2023/01/06 10:50:33;;;;;;;;;;;13.50;99.90;;;;;;7343939;19;109172;-89
2023/01/06 10:53:00;;;;;;;;;;;13.50;99.90;;;;;;7348693;19;109153;-89
2023/01/06 10:55:36;;;;;;;;;;;13.40;99.90;;;;;;7341918;19;109546;-90
2023/01/06 10:58:12;;;;;;;;;;;13.50;99.90;;;;;;7341602;19;112605;-87
2023/01/06 11:00:55;;;;;;;;;;;13.50;99.90;;;;;;7340341;19;109234;-90
2023/01/06 11:03:22;;;;;;;;;;;13.50;99.90;;;;;;7341566;19;108852;-90
2023/01/06 11:06:13;;;;;;;;;;;13.50;99.90;;;;;;7340908;19;111549;-88
2023/01/06 11:08:40;;;;;;;;;;;13.60;99.90;;;;;;7341473;19;108732;-90
2023/01/06 11:11:08;;;;;;;;;;;13.60;99.90;;;;;;7344384;19;109396;-91
2023/01/06 11:13:54;;;;;;;;;;;13.60;99.90;;;;;;7346158;19;111663;-89
2023/01/06 11:16:24;;;;;;;;;;;13.60;99.90;;;;;;7351617;19;108490;-92
2023/01/06 11:18:52;;;;;;;;;;;13.70;99.90;;;;;;7342061;19;110523;-90
2023/01/06 11:21:20;;;;;;;;;;;13.70;99.90;;;;;;7343312;19;108759;-90
2023/01/06 11:23:47;;;;;;;;;;;13.90;99.90;;;;;;7343212;19;109854;-92
2023/01/06 11:26:16;;;;;;;;;;;13.90;99.90;;;;;;7342639;19;112917;-89
2023/01/06 11:28:44;;;;;;;;;;;13.90;99.90;;;;;;7341027;19;109139;-92
2023/01/06 11:31:14;;;;;;;;;;;14.00;99.90;;;;;;7346506;19;111823;-90
2023/01/06 11:33:51;;;;;;;;;;;13.90;99.90;;;;;;7338132;19;111924;-92
2023/01/06 11:36:19;;;;;;;;;;;13.90;99.90;;;;;;7345493;19;109530;-88
2023/01/06 11:38:51;;;;;;;;;;;13.90;99.90;;;;;;7340523;19;109294;-88
2023/01/06 11:41:38;;;;;;;;;;;13.90;99.90;;;;;;7343782;19;108646;-91
2023/01/06 11:44:07;;;;;;;;;;;13.90;99.90;;;;;;7340662;19;110996;-90
2023/01/06 11:46:35;;;;;;;;;;;13.90;99.90;;;;;;7342620;19;110187;-90
2023/01/06 11:49:10;;;;;;;;;;;13.90;99.90;;;;;;7337985;19;108973;-87
2023/01/06 11:51:40;;;;;;;;;;;13.90;99.90;;;;;;7334884;19;109593;-88
2023/01/06 11:54:25;;;;;;;;;;;13.90;99.90;;;;;;7338872;19;109565;-87
2023/01/06 11:57:10;;;;;;;;;;;13.90;99.90;;;;;;7333241;19;109688;-87
2023/01/06 11:59:44;;;;;;;;;;;13.80;99.90;;;;;;7340981;19;111605;-87
2023/01/06 12:02:16;;;;;;;;;;;13.80;99.90;;;;;;7337779;19;109839;-86
2023/01/06 12:04:47;;;;;;;;;;;13.80;99.90;;;;;;7339198;19;111433;-88
2023/01/06 12:07:19;;;;;;;;;;;13.80;99.90;;;;;;7339789;19;110784;-88
2023/01/06 12:09:48;;;;;;;;;;;13.90;99.90;;;;;;7340811;19;109038;-88
2023/01/06 12:12:20;;;;;;;;;;;13.90;99.90;;;;;;7336054;19;108949;-90
2023/01/06 12:14:47;;;;;;;;;;;14.00;99.90;;;;;;7337405;19;111952;-90
2023/01/06 12:17:26;;;;;;;;;;;14.00;99.90;;;;;;7336474;19;109040;-89
2023/01/06 12:20:12;;;;;;;;;;;14.00;99.90;;;;;;7338219;19;109583;-89
2023/01/06 12:22:47;;;;;;;;;;;14.00;99.90;;;;;;7356391;19;111486;-88
2023/01/06 12:25:18;;;;;;;;;;;13.90;99.90;;;;;;7351192;19;109672;-88
2023/01/06 12:27:48;;;;;;;;;;;13.80;99.90;;;;;;7351982;19;113473;-88
2023/01/06 12:30:17;;;;;;;;;;;13.80;99.90;;;;;;7353360;19;108921;-89
2023/01/06 12:32:47;;;;;;;;;;;13.80;99.90;;;;;;7349713;19;111765;-88
2023/01/06 12:35:18;;;;;;;;;;;13.80;99.90;;;;;;7351208;19;110330;-87
2023/01/06 12:37:47;;;;;;;;;;;13.80;99.90;;;;;;7346861;19;109052;-88
2023/01/06 12:40:23;;;;;;;;;;;13.80;99.90;;;;;;7344209;19;109400;-88
2023/01/06 12:42:50;;;;;;;;;;;13.70;99.90;;;;;;7344373;19;112949;-88
2023/01/06 12:45:23;;;;;;;;;;;13.80;99.90;;;;;;7357073;19;108723;-88
2023/01/06 12:47:52;;;;;;;;;;;13.70;99.90;;;;;;7353349;19;110621;-90
2023/01/06 12:50:26;;;;;;;;;;;13.70;99.90;;;;;;7353045;19;110205;-89
2023/01/06 12:52:56;;;;;;;;;;;13.70;99.90;;;;;;7354995;19;109154;-93
2023/01/06 12:55:36;;;;;;;;;;;13.60;99.90;;;;;;7355870;19;113633;-94
2023/01/06 12:58:11;;;;;;;;;;;13.60;99.90;;;;;;7354243;19;108781;-93
2023/01/06 13:00:47;;;;;;;;;;;13.50;99.90;;;;;;7352374;19;109252;-92
2023/01/06 13:03:32;;;;;;;;;;;13.50;99.90;;;;;;7343611;19;112616;-92
2023/01/06 13:06:08;;;;;;;;;;;13.50;99.90;;;;;;7357090;19;108900;-94
2023/01/06 13:08:54;;;;;;;;;;;13.50;99.90;;;;;;7363874;19;110199;-94
2023/01/06 13:11:39;;;;;;;;;;;13.50;99.90;;;;;;7359659;19;109091;-93
2023/01/06 13:14:09;;;;;;;;;;;13.50;99.90;;;;;;7357804;19;111877;-94
2023/01/06 13:16:45;;;;;;;;;;;13.50;99.90;;;;;;7358548;19;113795;-93
2023/01/06 13:19:22;;;;;;;;;;;13.50;99.90;;;;;;7359744;19;108435;-92
2023/01/06 13:21:51;;;;;;;;;;;13.40;99.90;;;;;;7358558;19;110826;-93
2023/01/06 13:24:24;;;;;;;;;;;13.40;99.90;;;;;;7358093;19;112145;-93
2023/01/06 13:27:13;;;;;;;;;;;13.40;99.90;;;;;;7353506;19;108363;-92
2023/01/06 13:29:48;;;;;;;;;;;13.40;99.90;;;;;;7353343;19;111961;-91
2023/01/06 13:32:34;;;;;;;;;;;13.40;99.90;;;;;;7354726;19;111638;-91
2023/01/06 13:35:04;;;;;;;;;;;13.40;99.90;;;;;;7347493;19;109559;-90
2023/01/06 13:37:39;;;;;;;;;;;13.40;99.90;;;;;;7345710;19;112126;-92
2023/01/06 13:40:19;;;;;;;;;;;13.40;99.90;;;;;;7350183;19;109183;-91
2023/01/06 13:42:53;;;;;;;;;;;13.40;99.90;;;;;;7345917;19;110438;-89
2023/01/06 13:45:21;;;;;;;;;;;13.40;99.90;;;;;;7349942;19;113024;-91
2023/01/06 13:47:49;;;;;;;;;;;13.40;99.90;;;;;;7349641;19;108942;-91
2023/01/06 13:50:18;;;;;;;;;;;13.40;99.90;;;;;;7349280;19;109353;-92
2023/01/06 13:52:45;;;;;;;;;;;13.30;99.90;;;;;;7354134;19;112406;-91
2023/01/06 13:55:18;;;;;;;;;;;13.30;99.90;;;;;;7350306;19;109307;-93
2023/01/06 13:57:45;;;;;;;;;;;13.40;99.90;;;;;;7348526;19;109439;-92
2023/01/06 14:00:15;;;;;;;;;;;13.40;99.90;;;;;;7350446;19;108402;-92
2023/01/06 14:02:45;;;;;;;;;;;13.40;99.90;;;;;;7347403;19;111731;-91
2023/01/06 14:05:18;;;;;;;;;;;13.50;99.90;;;;;;7348669;19;113709;-91
2023/01/06 14:07:50;;;;;;;;;;;13.40;99.90;;;;;;7348666;19;108739;-92
2023/01/06 14:10:35;;;;;;;;;;;13.40;99.90;;;;;;7347808;19;108402;-92
2023/01/06 14:13:04;;;;;;;;;;;13.40;99.90;;;;;;7348681;19;112904;-92
2023/01/06 14:15:32;;;;;;;;;;;13.50;99.90;;;;;;7353553;19;108336;-91
2023/01/06 14:18:00;;;;;;;;;;;13.50;99.90;;;;;;7349260;19;112663;-91
2023/01/06 14:20:29;;;;;;;;;;;13.50;99.90;;;;;;7348729;19;108438;-91
2023/01/06 14:22:59;;;;;;;;;;;13.50;99.90;;;;;;7347880;19;110516;-92
2023/01/06 14:25:27;;;;;;;;;;;13.50;99.90;;;;;;7345681;19;113521;-90